createdAt,value
2019-03-05T00:00:45.755Z,3.30
2019-03-05T00:01:29.805Z,3.17
2019-03-05T00:02:06.604Z,2.97
2019-03-05T00:02:46.746Z,3.13
2019-03-05T00:03:29.651Z,3.50
2019-03-05T00:04:09.341Z,3.17
2019-03-05T00:04:45.980Z,3.63
2019-03-05T00:05:22.753Z,3.30
2019-03-05T00:05:59.392Z,3.17
2019-03-05T00:06:36.063Z,3.83
2019-03-05T00:07:12.910Z,3.50
2019-03-05T00:07:52.589Z,3.50
2019-03-05T00:08:29.685Z,3.63
2019-03-05T00:09:07.542Z,3.70
2019-03-05T00:09:44.537Z,3.10
2019-03-05T00:10:23.349Z,3.53
2019-03-05T00:10:59.843Z,3.00
2019-03-05T00:11:37.856Z,3.47
2019-03-05T00:12:14.460Z,4.43
2019-03-05T00:12:51.589Z,3.53
2019-03-05T00:13:29.458Z,3.27
2019-03-05T00:14:06.064Z,3.50
2019-03-05T00:14:42.783Z,3.47
2019-03-05T00:15:21.579Z,3.80
2019-03-05T00:15:58.311Z,3.00
2019-03-05T00:16:34.742Z,3.10
2019-03-05T00:17:11.571Z,3.77
2019-03-05T00:17:50.988Z,3.20
2019-03-05T00:18:27.682Z,3.33
2019-03-05T00:19:04.349Z,3.97
2019-03-05T00:19:41.230Z,3.70
2019-03-05T00:20:21.030Z,3.67
2019-03-05T00:20:57.965Z,3.53
2019-03-05T00:21:34.920Z,2.93
2019-03-05T00:22:11.783Z,3.23
2019-03-05T00:22:48.362Z,3.80
2019-03-05T00:23:46.235Z,3.03
2019-03-05T00:24:48.732Z,3.73
2019-03-05T00:25:25.482Z,3.33
2019-03-05T00:26:02.415Z,3.20
2019-03-05T00:26:39.277Z,3.10
2019-03-05T00:27:16.301Z,2.63
2019-03-05T00:28:36.444Z,2.80
2019-03-05T00:30:00.338Z,3.00
2019-03-05T00:31:10.330Z,3.67
2019-03-05T00:31:47.158Z,3.37
2019-03-05T00:32:23.661Z,3.40
2019-03-05T00:33:08.172Z,3.10
2019-03-05T00:34:19.315Z,3.27
2019-03-05T00:35:21.477Z,3.20
2019-03-05T00:36:17.090Z,3.10
2019-03-05T00:37:10.265Z,3.03
2019-03-05T00:37:59.636Z,2.63
2019-03-05T00:39:20.545Z,3.43
2019-03-05T00:40:15.547Z,3.27
2019-03-05T00:41:34.548Z,2.90
2019-03-05T00:42:48.008Z,3.47
2019-03-05T00:43:44.934Z,2.83
2019-03-05T00:45:14.903Z,2.87
2019-03-05T00:46:38.010Z,2.90
2019-03-05T00:48:01.909Z,2.90
2019-03-05T00:49:20.853Z,3.23
2019-03-05T00:50:27.007Z,3.00
2019-03-05T00:51:28.281Z,3.20
2019-03-05T00:52:35.168Z,2.80
2019-03-05T00:53:42.975Z,3.07
2019-03-05T00:55:03.742Z,2.93
2019-03-05T00:56:05.629Z,2.63
2019-03-05T00:57:10.199Z,3.20
2019-03-05T00:58:12.140Z,3.10
2019-03-05T00:59:29.389Z,3.30
2019-03-05T01:00:17.875Z,3.37
2019-03-05T01:01:18.426Z,3.30
2019-03-05T01:02:13.062Z,3.10
2019-03-05T01:03:12.207Z,3.50
2019-03-05T01:04:14.819Z,3.00
2019-03-05T01:05:26.675Z,3.20
2019-03-05T01:06:24.612Z,2.97
2019-03-05T01:07:03.169Z,3.10
2019-03-05T01:07:41.780Z,3.20
2019-03-05T01:08:19.798Z,3.40
2019-03-05T01:08:57.407Z,3.70
2019-03-05T01:09:34.456Z,3.50
2019-03-05T01:10:14.262Z,3.30
2019-03-05T01:10:53.480Z,3.10
2019-03-05T01:11:33.072Z,3.07
2019-03-05T01:12:10.280Z,2.83
2019-03-05T01:12:47.359Z,3.57
2019-03-05T01:13:28.850Z,2.97
2019-03-05T01:14:14.437Z,3.13
2019-03-05T01:14:57.250Z,3.53
2019-03-05T01:15:34.345Z,2.77
2019-03-05T01:16:14.777Z,3.13
2019-03-05T01:16:59.503Z,3.23
2019-03-05T01:17:36.248Z,3.37
2019-03-05T01:18:21.429Z,3.20
2019-03-05T01:18:58.137Z,2.70
2019-03-05T01:19:35.209Z,3.30
2019-03-05T01:20:13.857Z,2.93
2019-03-05T01:20:53.652Z,3.30
2019-03-05T01:21:30.897Z,2.77
2019-03-05T01:22:10.853Z,2.93
2019-03-05T01:22:49.308Z,2.80
2019-03-05T01:23:26.271Z,3.23
2019-03-05T01:24:16.715Z,3.33
2019-03-05T01:24:58.287Z,2.90
2019-03-05T01:25:36.437Z,2.77
2019-03-05T01:26:16.410Z,3.33
2019-03-05T01:26:53.734Z,2.67
2019-03-05T01:27:30.932Z,3.07
2019-03-05T01:28:07.984Z,3.40
2019-03-05T01:28:49.035Z,2.97
2019-03-05T01:29:27.720Z,3.30
2019-03-05T01:30:04.841Z,3.00
2019-03-05T01:31:19.359Z,2.97
2019-03-05T01:32:13.837Z,2.90
2019-03-05T01:33:02.050Z,3.10
2019-03-05T01:33:56.709Z,2.73
2019-03-05T01:34:58.420Z,3.17
2019-03-05T01:35:47.459Z,2.93
2019-03-05T01:36:27.055Z,3.30
2019-03-05T01:37:09.230Z,2.70
2019-03-05T01:37:49.271Z,3.40
2019-03-05T01:38:33.162Z,2.80
2019-03-05T01:39:48.885Z,2.90
2019-03-05T01:40:59.444Z,3.03
2019-03-05T01:41:36.438Z,3.87
2019-03-05T01:42:13.780Z,3.03
2019-03-05T01:42:50.862Z,2.67
2019-03-05T01:43:27.966Z,3.63
2019-03-05T01:44:13.725Z,2.60
2019-03-05T01:44:55.162Z,3.67
2019-03-05T01:45:32.106Z,2.93
2019-03-05T01:46:11.318Z,3.23
2019-03-05T01:46:51.481Z,2.90
2019-03-05T01:47:33.111Z,3.27
2019-03-05T01:48:09.886Z,2.93
2019-03-05T01:48:47.015Z,3.20
2019-03-05T01:49:26.315Z,3.13
2019-03-05T01:50:10.067Z,2.97
2019-03-05T01:50:48.815Z,3.47
2019-03-05T01:51:30.575Z,3.07
2019-03-05T01:52:09.751Z,2.87
2019-03-05T01:52:47.745Z,2.60
2019-03-05T01:53:30.377Z,3.00
2019-03-05T01:54:13.080Z,2.87
2019-03-05T01:54:55.316Z,3.00
2019-03-05T01:55:33.816Z,2.90
2019-03-05T01:56:17.282Z,2.50
2019-03-05T01:56:58.559Z,2.83
2019-03-05T01:57:37.625Z,3.27
2019-03-05T01:58:17.533Z,2.70
2019-03-05T01:58:55.193Z,2.63
2019-03-05T01:59:36.819Z,2.60
2019-03-05T02:00:15.157Z,2.77
2019-03-05T02:00:58.151Z,2.50
2019-03-05T02:01:37.345Z,2.70
2019-03-05T02:02:19.079Z,2.30
2019-03-05T02:03:00.376Z,2.37
2019-03-05T02:03:40.190Z,2.00
2019-03-05T02:04:19.380Z,1.90
2019-03-05T02:04:58.293Z,2.10
2019-03-05T02:05:43.059Z,2.10
2019-03-05T02:06:26.996Z,2.03
2019-03-05T02:07:12.980Z,2.47
2019-03-05T02:07:49.816Z,2.43
2019-03-05T02:08:34.637Z,2.30
2019-03-05T02:09:14.747Z,2.50
2019-03-05T02:09:51.962Z,2.10
2019-03-05T02:10:34.647Z,2.30
2019-03-05T02:11:20.398Z,1.87
2019-03-05T02:12:03.719Z,2.17
2019-03-05T02:12:44.502Z,2.20
2019-03-05T02:13:28.727Z,2.50
2019-03-05T02:14:06.209Z,2.40
2019-03-05T02:14:43.758Z,2.10
2019-03-05T02:15:22.445Z,2.20
2019-03-05T02:16:05.575Z,2.43
2019-03-05T02:16:45.040Z,2.23
2019-03-05T02:17:26.147Z,2.10
2019-03-05T02:18:02.986Z,2.10
2019-03-05T02:18:42.871Z,2.83
2019-03-05T02:19:36.714Z,2.03
2019-03-05T02:20:21.192Z,1.90
2019-03-05T02:21:03.370Z,2.30
2019-03-05T02:21:40.593Z,2.00
2019-03-05T02:22:58.315Z,2.00
2019-03-05T02:23:46.779Z,1.87
2019-03-05T02:25:21.887Z,1.80
2019-03-05T02:26:25.627Z,1.70
2019-03-05T02:27:36.157Z,1.93
2019-03-05T02:28:54.059Z,1.87
2019-03-05T02:30:03.617Z,1.77
2019-03-05T02:31:18.389Z,1.80
2019-03-05T02:32:30.583Z,1.77
2019-03-05T02:33:29.863Z,2.00
2019-03-05T02:34:47.827Z,1.40
2019-03-05T02:35:34.612Z,1.50
2019-03-05T02:36:51.185Z,1.30
2019-03-05T02:38:06.451Z,1.27
2019-03-05T02:39:37.121Z,1.20
2019-03-05T02:40:58.414Z,1.70
2019-03-05T02:42:00.585Z,1.50
2019-03-05T02:43:08.704Z,1.63
2019-03-05T02:43:52.090Z,1.83
2019-03-05T02:45:23.172Z,1.90
2019-03-05T02:46:26.859Z,1.40
2019-03-05T02:47:33.762Z,1.97
2019-03-05T02:48:20.200Z,1.73
2019-03-05T02:49:25.761Z,1.90
2019-03-05T02:50:36.903Z,1.87
2019-03-05T02:52:22.073Z,2.20
2019-03-05T02:53:31.843Z,1.80
2019-03-05T02:54:52.205Z,1.80
2019-03-05T02:56:00.549Z,1.70
2019-03-05T02:57:11.620Z,2.07
2019-03-05T02:57:48.098Z,1.80
2019-03-05T02:58:24.770Z,2.27
2019-03-05T02:59:06.092Z,2.27
2019-03-05T02:59:46.215Z,2.10
2019-03-05T03:00:47.059Z,1.90
2019-03-05T03:02:01.025Z,1.97
2019-03-05T03:02:55.330Z,2.03
2019-03-05T03:03:38.943Z,1.90
2019-03-05T03:04:19.900Z,2.10
2019-03-05T03:05:14.046Z,2.27
2019-03-05T03:06:03.124Z,2.07
2019-03-05T03:06:40.306Z,2.10
2019-03-05T03:07:17.075Z,2.13
2019-03-05T03:07:54.231Z,2.20
2019-03-05T03:08:31.170Z,2.03
2019-03-05T03:10:07.347Z,1.80
2019-03-05T03:10:44.553Z,2.03
2019-03-05T03:11:22.111Z,2.20
2019-03-05T03:12:00.961Z,2.10
2019-03-05T03:12:39.533Z,2.43
2019-03-05T03:13:16.644Z,1.97
2019-03-05T03:13:53.860Z,2.17
2019-03-05T03:14:30.809Z,2.20
2019-03-05T03:15:15.527Z,2.20
2019-03-05T03:15:58.300Z,2.10
2019-03-05T03:16:38.000Z,2.40
2019-03-05T03:17:15.278Z,2.10
2019-03-05T03:17:51.562Z,2.37
2019-03-05T03:18:27.693Z,1.90
2019-03-05T03:19:03.838Z,1.97
2019-03-05T03:19:40.001Z,2.37
2019-03-05T03:20:18.267Z,2.27
2019-03-05T03:20:54.231Z,2.00
2019-03-05T03:21:30.180Z,2.33
2019-03-05T03:22:06.515Z,2.20
2019-03-05T03:22:42.412Z,2.23
2019-03-05T03:23:18.426Z,2.60
2019-03-05T03:23:54.443Z,2.30
2019-03-05T03:24:30.406Z,1.67
2019-03-05T03:25:06.672Z,2.30
2019-03-05T03:25:42.589Z,2.07
2019-03-05T03:26:18.504Z,2.70
2019-03-05T03:26:55.057Z,1.90
2019-03-05T03:27:31.398Z,2.30
2019-03-05T03:28:07.882Z,2.17
2019-03-05T03:28:43.845Z,1.70
2019-03-05T03:29:20.316Z,2.20
2019-03-05T03:29:56.288Z,2.00
2019-03-05T03:30:32.282Z,2.03
2019-03-05T03:31:08.129Z,2.20
2019-03-05T03:31:44.230Z,2.40
2019-03-05T03:32:20.018Z,2.00
2019-03-05T03:32:55.913Z,2.30
2019-03-05T03:33:31.734Z,2.10
2019-03-05T03:34:07.654Z,1.87
2019-03-05T03:34:43.471Z,2.20
2019-03-05T03:35:19.529Z,2.33
2019-03-05T03:35:55.325Z,2.30
2019-03-05T03:36:31.295Z,2.27
2019-03-05T03:37:07.168Z,2.00
2019-03-05T03:37:42.970Z,1.90
2019-03-05T03:38:18.800Z,2.00
2019-03-05T03:38:54.624Z,1.90
2019-03-05T03:39:30.620Z,2.00
2019-03-05T03:40:08.240Z,2.07
2019-03-05T03:40:44.172Z,2.00
2019-03-05T03:41:20.066Z,2.23
2019-03-05T03:41:56.256Z,2.00
2019-03-05T03:42:32.292Z,1.83
2019-03-05T03:43:08.343Z,2.20
2019-03-05T03:43:44.323Z,2.63
2019-03-05T03:44:20.264Z,2.00
2019-03-05T03:44:56.151Z,1.90
2019-03-05T03:45:32.019Z,2.07
2019-03-05T03:46:07.809Z,2.30
2019-03-05T03:46:43.482Z,2.27
2019-03-05T03:47:19.446Z,2.00
2019-03-05T03:47:55.880Z,2.30
2019-03-05T03:48:31.772Z,2.00
2019-03-05T03:49:08.011Z,1.87
2019-03-05T03:49:43.861Z,2.27
2019-03-05T03:50:19.714Z,2.17
2019-03-05T03:50:55.683Z,2.43
2019-03-05T03:51:31.472Z,2.40
2019-03-05T03:52:07.424Z,2.40
2019-03-05T03:52:43.569Z,2.30
2019-03-05T03:53:19.514Z,2.30
2019-03-05T03:53:55.689Z,2.27
2019-03-05T03:54:31.651Z,2.37
2019-03-05T03:55:08.173Z,2.77
2019-03-05T03:55:43.992Z,2.17
2019-03-05T03:56:20.176Z,2.00
2019-03-05T03:56:56.194Z,2.00
2019-03-05T03:57:32.035Z,2.40
2019-03-05T03:58:07.926Z,2.33
2019-03-05T03:58:43.935Z,2.80
2019-03-05T03:59:19.733Z,2.90
2019-03-05T03:59:55.551Z,2.30
2019-03-05T04:00:31.643Z,2.57
2019-03-05T04:01:07.884Z,2.30
2019-03-05T04:01:44.055Z,3.17
2019-03-05T04:02:20.333Z,2.40
2019-03-05T04:02:56.748Z,2.10
2019-03-05T04:03:32.712Z,2.20
2019-03-05T04:04:08.644Z,2.60
2019-03-05T04:04:45.049Z,2.47
2019-03-05T04:05:20.868Z,2.70
2019-03-05T04:05:56.475Z,2.37
2019-03-05T04:06:32.282Z,2.60
2019-03-05T04:07:08.138Z,2.53
2019-03-05T04:07:43.679Z,2.77
2019-03-05T04:08:19.241Z,2.50
2019-03-05T04:08:54.787Z,2.17
2019-03-05T04:09:30.875Z,2.63
2019-03-05T04:10:06.644Z,2.30
2019-03-05T04:10:42.804Z,2.40
2019-03-05T04:11:18.704Z,2.30
2019-03-05T04:11:54.275Z,2.33
2019-03-05T04:12:29.812Z,2.33
2019-03-05T04:13:05.425Z,2.33
2019-03-05T04:13:41.943Z,2.20
2019-03-05T04:14:17.907Z,2.20
2019-03-05T04:14:53.458Z,2.60
2019-03-05T04:15:29.080Z,2.00
2019-03-05T04:16:04.664Z,2.50
2019-03-05T04:16:40.223Z,2.43
2019-03-05T04:17:15.815Z,2.33
2019-03-05T04:17:51.686Z,2.17
2019-03-05T04:18:27.299Z,2.30
2019-03-05T04:19:04.497Z,2.37
2019-03-05T04:19:40.081Z,2.20
2019-03-05T04:20:20.939Z,2.37
2019-03-05T04:20:56.475Z,2.23
2019-03-05T04:21:32.028Z,1.77
2019-03-05T04:22:07.563Z,2.40
2019-03-05T04:22:43.125Z,2.13
2019-03-05T04:23:18.689Z,2.10
2019-03-05T04:23:54.539Z,2.70
2019-03-05T04:24:30.083Z,2.07
2019-03-05T04:25:06.510Z,2.20
2019-03-05T04:25:42.192Z,2.10
2019-03-05T04:26:17.808Z,2.30
2019-03-05T04:26:53.343Z,2.33
2019-03-05T04:27:28.963Z,2.03
2019-03-05T04:28:04.506Z,2.07
2019-03-05T04:28:40.046Z,2.03
2019-03-05T04:29:15.578Z,2.57
2019-03-05T04:29:51.118Z,1.90
2019-03-05T04:30:26.691Z,2.20
2019-03-05T04:31:02.779Z,2.00
2019-03-05T04:31:38.331Z,2.47
2019-03-05T04:32:13.868Z,2.27
2019-03-05T04:32:49.644Z,2.00
2019-03-05T04:33:25.212Z,2.40
2019-03-05T04:34:00.858Z,1.90
2019-03-05T04:34:36.435Z,1.93
2019-03-05T04:35:12.166Z,2.03
2019-03-05T04:35:47.787Z,1.93
2019-03-05T04:36:23.341Z,2.10
2019-03-05T04:36:58.888Z,2.40
2019-03-05T04:37:34.439Z,2.10
2019-03-05T04:38:09.982Z,1.80
2019-03-05T04:38:45.559Z,1.97
2019-03-05T04:39:21.118Z,1.80
2019-03-05T04:39:57.330Z,1.60
2019-03-05T04:40:32.875Z,1.83
2019-03-05T04:41:08.431Z,1.80
2019-03-05T04:41:43.977Z,2.27
2019-03-05T04:42:19.538Z,2.43
2019-03-05T04:42:55.090Z,1.90
2019-03-05T04:43:30.663Z,1.90
2019-03-05T04:44:06.240Z,2.00
2019-03-05T04:44:46.406Z,2.00
2019-03-05T04:45:28.686Z,2.60
2019-03-05T04:46:21.714Z,2.00
2019-03-05T04:46:57.590Z,1.93
2019-03-05T04:47:33.122Z,2.23
2019-03-05T04:48:10.135Z,2.30
2019-03-05T04:48:56.947Z,1.80
2019-03-05T04:49:54.861Z,1.97
2019-03-05T04:50:41.021Z,2.00
2019-03-05T04:51:24.698Z,1.87
2019-03-05T04:52:03.043Z,2.40
2019-03-05T04:52:38.858Z,2.33
2019-03-05T04:53:14.395Z,1.90
2019-03-05T04:53:49.931Z,2.00
2019-03-05T04:54:25.488Z,2.20
2019-03-05T04:55:01.109Z,2.00
2019-03-05T04:55:36.735Z,2.07
2019-03-05T04:56:12.368Z,1.87
2019-03-05T04:56:47.918Z,1.93
2019-03-05T04:57:23.456Z,1.90
2019-03-05T04:57:58.998Z,2.00
2019-03-05T04:58:34.556Z,2.00
2019-03-05T04:59:10.138Z,1.87
2019-03-05T04:59:46.678Z,1.93
2019-03-05T05:00:22.767Z,2.07
2019-03-05T05:00:58.379Z,2.00
2019-03-05T05:01:34.235Z,2.13
2019-03-05T05:02:09.790Z,2.10
2019-03-05T05:02:45.323Z,2.03
2019-03-05T05:03:20.862Z,2.20
2019-03-05T05:03:57.744Z,2.13
2019-03-05T05:04:33.425Z,1.83
2019-03-05T05:05:08.982Z,2.10
2019-03-05T05:05:44.626Z,1.80
2019-03-05T05:06:20.189Z,2.43
2019-03-05T05:06:55.735Z,1.90
2019-03-05T05:07:31.291Z,2.27
2019-03-05T05:08:06.969Z,2.20
2019-03-05T05:08:42.500Z,2.30
2019-03-05T05:09:18.038Z,2.03
2019-03-05T05:09:53.608Z,2.20
2019-03-05T05:10:29.161Z,1.87
2019-03-05T05:11:04.997Z,2.00
2019-03-05T05:11:40.530Z,2.10
2019-03-05T05:12:16.102Z,1.80
2019-03-05T05:12:51.652Z,2.67
2019-03-05T05:13:27.448Z,2.00
2019-03-05T05:14:04.447Z,2.10
2019-03-05T05:14:40.087Z,2.30
2019-03-05T05:15:29.439Z,2.10
2019-03-05T05:16:04.993Z,2.20
2019-03-05T05:16:40.554Z,2.10
2019-03-05T05:17:16.170Z,2.20
2019-03-05T05:17:52.239Z,2.40
2019-03-05T05:18:27.794Z,1.77
2019-03-05T05:19:03.347Z,2.40
2019-03-05T05:19:38.883Z,2.00
2019-03-05T05:20:14.430Z,2.47
2019-03-05T05:20:50.503Z,2.10
2019-03-05T05:21:26.275Z,2.37
2019-03-05T05:22:02.216Z,2.20
2019-03-05T05:22:38.347Z,2.17
2019-03-05T05:23:13.898Z,2.17
2019-03-05T05:23:49.462Z,2.10
2019-03-05T05:24:25.615Z,2.70
2019-03-05T05:25:01.178Z,1.90
2019-03-05T05:25:37.044Z,1.90
2019-03-05T05:26:12.596Z,2.07
2019-03-05T05:26:48.226Z,2.10
2019-03-05T05:27:23.834Z,2.37
2019-03-05T05:27:59.393Z,1.97
2019-03-05T05:28:34.974Z,2.40
2019-03-05T05:29:10.516Z,2.13
2019-03-05T05:29:46.674Z,2.30
2019-03-05T05:30:35.995Z,2.07
2019-03-05T05:31:11.544Z,2.07
2019-03-05T05:31:47.081Z,2.40
2019-03-05T05:32:23.120Z,2.00
2019-03-05T05:32:58.902Z,1.87
2019-03-05T05:33:35.095Z,2.47
2019-03-05T05:34:11.154Z,1.97
2019-03-05T05:34:46.948Z,2.20
2019-03-05T05:35:22.610Z,1.90
2019-03-05T05:35:58.479Z,2.27
2019-03-05T05:36:34.522Z,1.73
2019-03-05T05:37:10.339Z,2.03
2019-03-05T05:37:46.130Z,2.27
2019-03-05T05:38:21.922Z,2.20
2019-03-05T05:38:57.886Z,2.27
2019-03-05T05:40:11.525Z,2.40
2019-03-05T05:40:47.184Z,2.20
2019-03-05T05:41:23.010Z,2.00
2019-03-05T05:41:58.610Z,2.37
2019-03-05T05:42:34.158Z,2.47
2019-03-05T05:43:12.356Z,2.57
2019-03-05T05:43:48.158Z,2.33
2019-03-05T05:44:24.062Z,2.10
2019-03-05T05:44:59.607Z,2.00
2019-03-05T05:45:53.458Z,2.47
2019-03-05T05:46:29.063Z,2.63
2019-03-05T05:47:04.605Z,2.10
2019-03-05T05:47:40.163Z,2.30
2019-03-05T05:48:15.698Z,2.27
2019-03-05T05:48:51.339Z,2.50
2019-03-05T05:49:26.878Z,2.80
2019-03-05T05:50:02.488Z,2.53
2019-03-05T05:50:38.081Z,2.30
2019-03-05T05:51:13.620Z,2.37
2019-03-05T05:51:50.371Z,2.30
2019-03-05T05:52:26.215Z,2.40
2019-03-05T05:53:02.094Z,2.20
2019-03-05T05:53:37.680Z,2.30
2019-03-05T05:54:13.225Z,2.37
2019-03-05T05:54:48.830Z,2.37
2019-03-05T05:55:24.394Z,2.47
2019-03-05T05:56:00.267Z,2.67
2019-03-05T05:56:36.143Z,2.50
2019-03-05T05:57:11.683Z,2.13
2019-03-05T05:57:47.226Z,2.47
2019-03-05T05:58:22.762Z,2.03
2019-03-05T05:58:58.306Z,2.17
2019-03-05T05:59:33.868Z,2.27
2019-03-05T06:00:11.839Z,2.07
2019-03-05T06:00:49.579Z,2.40
2019-03-05T06:01:25.364Z,2.67
2019-03-05T06:02:00.883Z,2.50
2019-03-05T06:02:36.499Z,2.20
2019-03-05T06:03:12.067Z,2.20
2019-03-05T06:03:47.688Z,2.37
2019-03-05T06:04:23.227Z,2.27
2019-03-05T06:04:58.764Z,2.47
2019-03-05T06:05:34.578Z,2.20
2019-03-05T06:06:10.104Z,2.67
2019-03-05T06:06:45.887Z,2.33
2019-03-05T06:07:21.426Z,2.23
2019-03-05T06:07:57.946Z,2.30
2019-03-05T06:08:33.497Z,2.03
2019-03-05T06:09:09.034Z,2.50
2019-03-05T06:09:44.586Z,2.50
2019-03-05T06:10:20.131Z,2.50
2019-03-05T06:10:55.787Z,2.40
2019-03-05T06:11:31.314Z,2.33
2019-03-05T06:12:06.878Z,2.17
2019-03-05T06:12:42.431Z,1.93
2019-03-05T06:13:17.983Z,2.23
2019-03-05T06:13:54.598Z,2.47
2019-03-05T06:14:30.419Z,2.30
2019-03-05T06:15:06.432Z,2.40
2019-03-05T06:15:42.035Z,2.30
2019-03-05T06:16:17.841Z,2.20
2019-03-05T06:16:53.688Z,2.17
2019-03-05T06:17:29.334Z,2.20
2019-03-05T06:18:04.893Z,1.90
2019-03-05T06:18:40.434Z,2.00
2019-03-05T06:19:16.628Z,2.03
2019-03-05T06:19:52.286Z,2.00
2019-03-05T06:20:28.091Z,2.00
2019-03-05T06:21:03.634Z,2.10
2019-03-05T06:21:39.199Z,2.30
2019-03-05T06:22:14.737Z,2.13
2019-03-05T06:22:51.251Z,2.37
2019-03-05T06:23:26.796Z,1.97
2019-03-05T06:24:02.504Z,1.93
2019-03-05T06:24:38.689Z,1.90
2019-03-05T06:25:14.254Z,2.07
2019-03-05T06:25:49.807Z,2.20
2019-03-05T06:26:25.374Z,1.83
2019-03-05T06:27:01.295Z,2.03
2019-03-05T06:27:36.972Z,2.00
2019-03-05T06:28:13.521Z,1.77
2019-03-05T06:28:49.055Z,2.20
2019-03-05T06:29:25.047Z,2.40
2019-03-05T06:30:00.593Z,2.17
2019-03-05T06:30:36.422Z,2.17
2019-03-05T06:31:12.320Z,2.20
2019-03-05T06:31:47.868Z,2.30
2019-03-05T06:32:23.433Z,2.00
2019-03-05T06:32:59.033Z,2.03
2019-03-05T06:33:34.911Z,1.90
2019-03-05T06:34:10.719Z,2.10
2019-03-05T06:34:46.307Z,2.03
2019-03-05T06:35:22.155Z,1.90
2019-03-05T06:35:57.741Z,2.33
2019-03-05T06:36:52.710Z,2.10
2019-03-05T06:37:28.652Z,2.10
2019-03-05T06:38:04.247Z,2.30
2019-03-05T06:38:39.935Z,2.10
2019-03-05T06:39:15.487Z,2.40
2019-03-05T06:39:51.054Z,2.30
2019-03-05T06:40:26.743Z,2.10
2019-03-05T06:41:02.290Z,2.27
2019-03-05T06:41:37.822Z,2.43
2019-03-05T06:42:14.140Z,2.23
2019-03-05T06:42:49.687Z,2.20
2019-03-05T06:43:25.240Z,2.10
2019-03-05T06:44:00.787Z,2.10
2019-03-05T06:44:36.321Z,1.90
2019-03-05T06:45:14.219Z,1.97
2019-03-05T06:45:49.796Z,1.90
2019-03-05T06:46:25.368Z,2.20
2019-03-05T06:47:01.154Z,2.10
2019-03-05T06:47:37.743Z,2.23
2019-03-05T06:48:13.641Z,2.27
2019-03-05T06:48:49.199Z,2.27
2019-03-05T06:49:24.768Z,2.00
2019-03-05T06:50:00.344Z,2.10
2019-03-05T06:50:36.926Z,2.30
2019-03-05T06:51:12.738Z,2.20
2019-03-05T06:51:48.291Z,2.40
2019-03-05T06:52:24.117Z,1.93
2019-03-05T06:52:59.666Z,2.10
2019-03-05T06:53:35.226Z,2.10
2019-03-05T06:54:11.842Z,2.30
2019-03-05T06:54:47.398Z,2.30
2019-03-05T06:55:23.223Z,2.07
2019-03-05T06:55:58.806Z,1.90
2019-03-05T06:56:34.343Z,2.10
2019-03-05T06:57:09.879Z,2.23
2019-03-05T06:57:45.414Z,2.40
2019-03-05T06:58:20.954Z,2.27
2019-03-05T06:58:56.524Z,2.37
2019-03-05T06:59:32.053Z,2.00
2019-03-05T07:00:12.847Z,2.07
2019-03-05T07:00:48.427Z,2.00
2019-03-05T07:01:24.029Z,1.83
2019-03-05T07:01:59.587Z,2.40
2019-03-05T07:02:35.373Z,1.90
2019-03-05T07:03:10.900Z,1.90
2019-03-05T07:03:46.719Z,1.77
2019-03-05T07:04:23.239Z,2.13
2019-03-05T07:04:58.787Z,2.30
2019-03-05T07:06:10.171Z,2.10
2019-03-05T07:06:52.883Z,1.80
2019-03-05T07:07:31.207Z,1.83
2019-03-05T07:08:07.713Z,2.13
2019-03-05T07:08:50.899Z,2.27
2019-03-05T07:09:58.115Z,2.30
2019-03-05T07:10:57.316Z,2.20
2019-03-05T07:11:42.763Z,2.13
2019-03-05T07:12:37.851Z,2.17
2019-03-05T07:13:16.535Z,2.30
2019-03-05T07:13:52.451Z,2.10
2019-03-05T07:14:52.066Z,1.80
2019-03-05T07:16:07.170Z,2.03
2019-03-05T07:17:10.487Z,2.20
2019-03-05T07:17:50.499Z,1.83
2019-03-05T07:18:32.050Z,2.07
2019-03-05T07:19:35.043Z,1.80
2019-03-05T07:20:26.614Z,1.70
2019-03-05T07:21:21.330Z,2.00
2019-03-05T07:22:23.848Z,1.90
2019-03-05T07:23:08.407Z,1.90
2019-03-05T07:24:20.214Z,1.60
2019-03-05T07:24:55.780Z,1.90
2019-03-05T07:25:31.619Z,1.67
2019-03-05T07:26:07.191Z,1.60
2019-03-05T07:26:42.726Z,1.53
2019-03-05T07:27:24.129Z,2.30
2019-03-05T07:27:59.773Z,1.70
2019-03-05T07:28:35.802Z,1.57
2019-03-05T07:29:11.351Z,1.70
2019-03-05T07:29:46.902Z,1.50
2019-03-05T07:30:26.565Z,1.53
2019-03-05T07:31:02.423Z,1.60
2019-03-05T07:31:38.430Z,1.23
2019-03-05T07:32:14.011Z,1.40
2019-03-05T07:32:50.720Z,1.60
2019-03-05T07:33:26.272Z,1.47
2019-03-05T07:34:01.818Z,1.37
2019-03-05T07:34:38.490Z,1.30
2019-03-05T07:35:15.385Z,1.30
2019-03-05T07:35:51.266Z,1.30
2019-03-05T07:36:26.805Z,1.57
2019-03-05T07:37:02.362Z,1.30
2019-03-05T07:37:38.276Z,1.40
2019-03-05T07:38:13.810Z,1.50
2019-03-05T07:38:49.354Z,1.30
2019-03-05T07:39:24.903Z,1.37
2019-03-05T07:40:00.701Z,1.30
2019-03-05T07:40:36.535Z,1.30
2019-03-05T07:41:12.569Z,1.50
2019-03-05T07:41:48.267Z,1.33
2019-03-05T07:42:24.012Z,1.30
2019-03-05T07:42:59.550Z,1.20
2019-03-05T07:43:36.719Z,1.30
2019-03-05T07:44:12.475Z,1.47
2019-03-05T07:44:48.378Z,1.40
2019-03-05T07:45:24.279Z,1.60
2019-03-05T07:46:00.243Z,1.37
2019-03-05T07:46:36.755Z,1.40
2019-03-05T07:47:12.304Z,1.70
2019-03-05T07:47:47.826Z,1.70
2019-03-05T07:48:23.364Z,1.63
2019-03-05T07:48:58.919Z,1.70
2019-03-05T07:49:43.175Z,1.70
2019-03-05T07:50:12.729Z,1.53
2019-03-05T07:50:48.791Z,1.60
2019-03-05T07:51:24.650Z,1.60
2019-03-05T07:52:00.204Z,1.50
2019-03-05T07:52:35.749Z,1.63
2019-03-05T07:53:11.303Z,1.50
2019-03-05T07:53:46.847Z,1.60
2019-03-05T07:54:22.401Z,1.60
2019-03-05T07:54:57.995Z,1.60
2019-03-05T07:55:33.843Z,1.50
2019-03-05T07:56:09.769Z,1.50
2019-03-05T07:56:45.331Z,1.67
2019-03-05T07:57:21.121Z,1.67
2019-03-05T07:57:57.180Z,1.60
2019-03-05T07:58:32.730Z,1.70
2019-03-05T07:59:08.266Z,1.40
2019-03-05T07:59:43.827Z,1.70
2019-03-05T08:00:21.216Z,1.77
2019-03-05T08:00:56.768Z,1.70
2019-03-05T08:01:32.439Z,1.80
2019-03-05T08:02:07.988Z,1.73
2019-03-05T08:02:43.803Z,1.80
2019-03-05T08:03:19.418Z,1.57
2019-03-05T08:03:54.978Z,1.90
2019-03-05T08:04:30.839Z,2.07
2019-03-05T08:05:06.953Z,2.03
2019-03-05T08:05:42.534Z,2.00
2019-03-05T08:06:18.612Z,1.70
2019-03-05T08:06:54.392Z,2.07
2019-03-05T08:07:29.965Z,1.90
2019-03-05T08:08:41.863Z,2.10
2019-03-05T08:09:48.779Z,2.07
2019-03-05T08:10:32.318Z,1.83
2019-03-05T08:11:07.867Z,2.00
2019-03-05T08:11:43.419Z,2.03
2019-03-05T08:13:05.931Z,1.90
2019-03-05T08:13:55.627Z,1.90
2019-03-05T08:14:57.825Z,2.00
2019-03-05T08:15:46.635Z,1.90
2019-03-05T08:16:27.631Z,1.90
2019-03-05T08:17:03.167Z,1.90
2019-03-05T08:17:40.779Z,2.00
2019-03-05T08:18:16.330Z,1.70
2019-03-05T08:18:51.917Z,2.13
2019-03-05T08:19:27.639Z,2.00
2019-03-05T08:20:03.317Z,1.83
2019-03-05T08:20:39.014Z,2.13
2019-03-05T08:21:14.647Z,2.00
2019-03-05T08:21:50.568Z,2.00
2019-03-05T08:22:26.387Z,2.03
2019-03-05T08:23:02.012Z,2.20
2019-03-05T08:23:37.606Z,2.10
2019-03-05T08:24:13.159Z,2.43
2019-03-05T08:24:48.692Z,2.27
2019-03-05T08:25:24.333Z,1.90
2019-03-05T08:26:00.106Z,2.13
2019-03-05T08:26:35.675Z,2.40
2019-03-05T08:27:11.730Z,2.17
2019-03-05T08:27:47.270Z,2.10
2019-03-05T08:28:23.302Z,2.23
2019-03-05T08:28:58.903Z,2.03
2019-03-05T08:29:34.451Z,2.20
2019-03-05T08:30:14.544Z,2.20
2019-03-05T08:30:49.934Z,2.00
2019-03-05T08:31:25.871Z,2.00
2019-03-05T08:32:01.443Z,2.20
2019-03-05T08:32:37.325Z,1.97
2019-03-05T08:33:13.174Z,2.33
2019-03-05T08:33:48.719Z,2.30
2019-03-05T08:34:24.366Z,2.40
2019-03-05T08:35:00.318Z,2.47
2019-03-05T08:35:35.902Z,2.40
2019-03-05T08:36:11.551Z,2.20
2019-03-05T08:36:47.363Z,2.30
2019-03-05T08:37:24.177Z,2.63
2019-03-05T08:38:00.019Z,2.37
2019-03-05T08:38:35.619Z,2.40
2019-03-05T08:39:11.507Z,2.73
2019-03-05T08:39:47.042Z,2.67
2019-03-05T08:40:22.972Z,2.40
2019-03-05T08:40:58.555Z,2.57
2019-03-05T08:41:34.451Z,2.40
2019-03-05T08:42:10.115Z,2.70
2019-03-05T08:42:45.666Z,2.47
2019-03-05T08:43:21.210Z,2.53
2019-03-05T08:43:56.888Z,2.80
2019-03-05T08:44:32.466Z,2.57
2019-03-05T08:45:09.849Z,2.37
2019-03-05T08:45:45.734Z,2.70
2019-03-05T08:46:21.585Z,2.73
2019-03-05T08:46:57.130Z,2.70
2019-03-05T08:47:32.716Z,2.70
2019-03-05T08:48:08.264Z,3.10
2019-03-05T08:48:43.791Z,3.03
2019-03-05T08:49:19.386Z,3.00
2019-03-05T08:49:55.162Z,2.40
2019-03-05T08:50:30.700Z,2.70
2019-03-05T08:51:06.481Z,2.90
2019-03-05T08:51:42.286Z,2.73
2019-03-05T08:52:17.910Z,2.87
2019-03-05T08:52:53.459Z,2.53
2019-03-05T08:53:29.058Z,2.50
2019-03-05T08:54:07.631Z,2.60
2019-03-05T08:54:42.527Z,2.87
2019-03-05T08:55:18.140Z,3.10
2019-03-05T08:55:53.695Z,3.00
2019-03-05T08:56:29.266Z,2.90
2019-03-05T08:57:04.867Z,2.73
2019-03-05T08:57:40.424Z,3.00
2019-03-05T08:58:15.979Z,2.63
2019-03-05T08:58:51.613Z,2.80
2019-03-05T08:59:27.467Z,2.60
2019-03-05T09:00:03.020Z,2.67
2019-03-05T09:00:38.821Z,2.60
2019-03-05T09:01:14.364Z,2.70
2019-03-05T09:01:49.922Z,2.57